Time;durP1;ratioP1;P1;durP2;ratioP2;P2;SDS_P1;SDS_P2;PMS_P1;PMS_P2;Temp;Humidity;BMP_temperature;BMP_pressure;BME280_temperature;BME280_humidity;BME280_pressure;Samples;Min_cycle;Max_cycle;Signal;HPM_P1;HPM_P2
2022/07/20 00:06:44;;;;;;;0.20;0.10;;;25.10;99.90;;;;;;25700544;23;20201;-70
2022/07/20 00:16:49;;;;;;;0.20;0.10;;;25.00;99.90;;;;;;25700088;23;20228;-72
2022/07/20 00:26:53;;;;;;;0.20;0.00;;;24.80;99.90;;;;;;25700703;23;20174;-71
2022/07/20 00:36:58;;;;;;;0.20;0.00;;;25.00;99.90;;;;;;25699855;23;20205;-71
2022/07/20 00:47:02;;;;;;;0.20;0.00;;;25.10;99.90;;;;;;25699834;23;20178;-70
2022/07/20 00:57:08;;;;;;;0.20;0.00;;;24.90;99.90;;;;;;25698397;23;20186;-70
2022/07/20 01:07:11;;;;;;;0.20;0.00;;;24.80;99.90;;;;;;25698653;23;20336;-71
2022/07/20 01:17:17;;;;;;;0.20;0.00;;;24.70;99.90;;;;;;25672540;23;20186;-71
2022/07/20 01:27:22;;;;;;;0.20;0.00;;;24.50;99.90;;;;;;25698354;23;20209;-70
2022/07/20 01:37:32;;;;;;;0.20;0.00;;;24.50;99.90;;;;;;25697892;23;20205;-70
2022/07/20 01:47:37;;;;;;;0.20;0.00;;;24.40;99.90;;;;;;25671596;23;20162;-71
2022/07/20 01:57:42;;;;;;;0.20;0.00;;;24.40;99.90;;;;;;25697510;23;20217;-69
2022/07/20 02:07:47;;;;;;;0.20;0.10;;;24.80;99.90;;;;;;25670661;23;20305;-70
2022/07/20 02:17:51;;;;;;;0.20;0.00;;;24.80;99.90;;;;;;25696671;23;20189;-70
2022/07/20 02:27:56;;;;;;;0.20;0.00;;;24.70;99.90;;;;;;25696713;23;20685;-69
2022/07/20 02:38:00;;;;;;;0.20;0.10;;;24.60;99.90;;;;;;25696056;23;20280;-69
2022/07/20 02:48:06;;;;;;;0.20;0.00;;;24.80;99.90;;;;;;25703479;23;20190;-70
2022/07/20 02:58:10;;;;;;;0.20;0.10;;;24.90;99.90;;;;;;25703892;23;20205;-70
2022/07/20 03:08:16;;;;;;;0.20;0.00;;;24.90;99.90;;;;;;25704152;23;20214;-70
2022/07/20 03:18:20;;;;;;;0.20;0.00;;;25.00;99.90;;;;;;25704193;23;20236;-67
2022/07/20 03:28:25;;;;;;;0.20;0.00;;;24.40;99.90;;;;;;25703689;23;20197;-70
2022/07/20 03:38:29;;;;;;;0.20;0.00;;;24.30;99.90;;;;;;25702511;23;20178;-70
2022/07/20 03:48:37;;;;;;;0.20;0.00;;;24.10;99.90;;;;;;25702291;23;20166;-70
2022/07/20 03:58:40;;;;;;;0.20;0.00;;;24.00;99.90;;;;;;25701417;23;21067;-70
2022/07/20 04:08:48;;;;;;;0.20;0.00;;;23.70;99.90;;;;;;25671261;23;20210;-69
2022/07/20 04:18:52;;;;;;;0.20;0.00;;;23.50;99.90;;;;;;25699805;23;20200;-69
2022/07/20 04:28:58;;;;;;;0.20;0.00;;;23.50;99.90;;;;;;25699864;23;20166;-69
2022/07/20 04:39:02;;;;;;;0.20;0.00;;;23.30;99.90;;;;;;25697597;23;20190;-70
2022/07/20 04:49:08;;;;;;;0.20;0.10;;;23.40;99.90;;;;;;25700071;23;20170;-69
2022/07/20 04:59:12;;;;;;;0.20;0.00;;;23.30;99.90;;;;;;25698996;23;20202;-70
2022/07/20 05:09:17;;;;;;;0.20;0.10;;;23.30;99.90;;;;;;25697879;23;20182;-70
2022/07/20 05:19:21;;;;;;;0.20;0.00;;;23.70;99.90;;;;;;25696278;23;20210;-70
2022/07/20 05:29:26;;;;;;;0.20;0.00;;;23.60;99.90;;;;;;25695587;23;20166;-70
2022/07/20 05:39:30;;;;;;;0.20;0.00;;;24.00;99.90;;;;;;25695105;23;20233;-70
2022/07/20 05:49:36;;;;;;;0.20;0.00;;;24.20;99.90;;;;;;25694701;23;20165;-69
2022/07/20 05:59:41;;;;;;;0.20;0.00;;;24.70;99.90;;;;;;25694171;23;20221;-69
2022/07/20 06:09:46;;;;;;;0.20;0.00;;;25.30;99.90;;;;;;25693094;23;20193;-70
2022/07/20 06:19:50;;;;;;;0.20;0.08;;;25.80;99.90;;;;;;25693012;23;20190;-71
2022/07/20 06:29:55;;;;;;;0.20;0.00;;;26.30;99.90;;;;;;25693856;23;20170;-70
2022/07/20 06:39:59;;;;;;;0.20;0.00;;;27.00;99.90;;;;;;25691630;23;20229;-69
2022/07/20 06:50:05;;;;;;;0.20;0.08;;;27.30;99.90;;;;;;25689940;23;20337;-68
2022/07/20 07:00:09;;;;;;;0.20;0.00;;;27.20;99.90;;;;;;25688380;23;20242;-68
2022/07/20 07:10:21;;;;;;;0.20;0.00;;;27.30;99.90;;;;;;25688815;23;20170;-69
2022/07/20 07:20:25;;;;;;;0.20;0.00;;;27.60;99.90;;;;;;25690008;23;20209;-68
2022/07/20 07:30:31;;;;;;;0.20;0.00;;;27.70;99.90;;;;;;25694462;23;20808;-70
2022/07/20 07:40:35;;;;;;;0.20;0.00;;;27.80;99.90;;;;;;25697138;23;20193;-69
2022/07/20 07:50:42;;;;;;;0.20;0.00;;;27.70;99.90;;;;;;25697812;23;20210;-69
2022/07/20 08:00:46;;;;;;;0.20;0.00;;;27.80;99.90;;;;;;25672298;23;20269;-69
2022/07/20 08:10:51;;;;;;;0.20;0.00;;;28.00;99.90;;;;;;25698101;23;20174;-69
2022/07/20 08:20:55;;;;;;;0.20;0.00;;;27.90;99.90;;;;;;25696084;23;20190;-66
2022/07/20 08:31:01;;;;;;;0.20;0.00;;;28.10;99.90;;;;;;25696347;23;20173;-69
2022/07/20 08:41:07;;;;;;;0.20;0.00;;;28.30;99.90;;;;;;25696425;23;20190;-69
2022/07/20 08:51:13;;;;;;;0.20;0.00;;;28.30;99.90;;;;;;25696556;23;20151;-69
2022/07/20 09:01:18;;;;;;;0.20;0.00;;;28.40;99.90;;;;;;25694414;23;20205;-68
2022/07/20 09:11:26;;;;;;;0.20;0.00;;;28.30;99.90;;;;;;25695424;23;20170;-69
2022/07/20 09:21:32;;;;;;;0.20;0.00;;;28.40;99.90;;;;;;25694522;23;20186;-70
2022/07/20 09:31:39;;;;;;;0.20;0.00;;;28.50;99.90;;;;;;25669101;23;20169;-70
2022/07/20 09:41:44;;;;;;;0.20;0.00;;;28.80;99.90;;;;;;25666160;23;20197;-70
2022/07/20 09:51:58;;;;;;;0.20;0.00;;;28.80;99.90;;;;;;25692730;23;20201;-70
2022/07/20 10:02:27;;;;;;;0.20;0.00;;;29.20;99.90;;;;;;25667073;23;20205;-70
2022/07/20 10:12:33;;;;;;;0.20;0.00;;;29.50;99.90;;;;;;25692657;23;20173;-70
2022/07/20 10:22:37;;;;;;;0.20;0.00;;;29.90;99.90;;;;;;25693136;23;20206;-70
2022/07/20 10:32:52;;;;;;;0.20;0.00;;;29.70;99.90;;;;;;25667856;23;20240;-70
2022/07/20 10:43:13;;;;;;;0.20;0.00;;;30.20;99.90;;;;;;25691101;23;20218;-70
2022/07/20 10:53:32;;;;;;;0.20;0.00;;;29.90;99.90;;;;;;25692357;23;20236;-70
2022/07/20 11:03:45;;;;;;;0.20;0.00;;;30.40;99.90;;;;;;25668456;23;20221;-70
2022/07/20 11:13:52;;;;;;;0.20;0.00;;;30.60;99.90;;;;;;25698100;23;20170;-70
2022/07/20 11:23:56;;;;;;;0.20;0.00;;;31.20;99.90;;;;;;25673937;23;20210;-70
2022/07/20 11:34:01;;;;;;;0.20;0.00;;;31.60;99.90;;;;;;25673055;23;20170;-70
2022/07/20 11:44:07;;;;;;;0.20;0.00;;;31.20;99.90;;;;;;25696632;23;20182;-71
2022/07/20 11:54:12;;;;;;;0.20;0.00;;;30.90;99.90;;;;;;25671662;23;20182;-72
2022/07/20 12:04:17;;;;;;;0.20;0.00;;;29.90;99.90;;;;;;25698818;23;20213;-71
2022/07/20 12:14:29;;;;;;;0.20;0.00;;;32.10;99.90;;;;;;25698057;23;20165;-70
2022/07/20 12:24:59;;;;;;;0.20;0.00;;;32.60;99.90;;;;;;25695335;23;20186;-71
2022/07/20 12:35:06;;;;;;;0.20;0.00;;;32.70;99.90;;;;;;25694616;23;20169;-71
2022/07/20 12:45:11;;;;;;;0.20;0.00;;;32.00;99.90;;;;;;25697121;23;20182;-71
2022/07/20 12:55:16;;;;;;;0.20;0.00;;;33.60;99.90;;;;;;25697605;23;20170;-72
2022/07/20 13:05:21;;;;;;;1.35;1.25;;;33.60;99.90;;;;;;25694677;23;20222;-71
2022/07/20 13:15:26;;;;;;;0.20;0.00;;;33.00;99.90;;;;;;25693794;23;20166;-70
2022/07/20 13:25:45;;;;;;;0.20;0.00;;;33.50;99.90;;;;;;25689636;23;20213;-70
2022/07/20 13:35:50;;;;;;;0.65;0.65;;;33.60;99.90;;;;;;25662052;23;20182;-69
2022/07/20 13:45:54;;;;;;;0.20;0.00;;;34.20;99.90;;;;;;25678858;23;20209;-70
2022/07/20 13:55:59;;;;;;;0.20;0.00;;;33.90;99.90;;;;;;25678572;23;20170;-71
2022/07/20 14:06:04;;;;;;;0.40;0.38;;;34.00;99.90;;;;;;25686309;23;20204;-69
2022/07/20 14:16:09;;;;;;;0.20;0.00;;;34.00;99.90;;;;;;25677683;23;20185;-70
2022/07/20 14:26:15;;;;;;;0.20;0.00;;;33.40;99.90;;;;;;25677270;23;20182;-69
2022/07/20 14:36:20;;;;;;;0.20;0.00;;;34.20;99.90;;;;;;25677199;23;20174;-69
2022/07/20 14:46:24;;;;;;;0.20;0.00;;;33.60;99.90;;;;;;25677034;23;20221;-69
2022/07/20 14:56:31;;;;;;;0.20;0.00;;;34.10;99.90;;;;;;25672361;23;20158;-70
2022/07/20 15:06:37;;;;;;;0.20;0.00;;;31.80;99.90;;;;;;25677626;23;20206;-70
2022/07/20 15:16:42;;;;;;;0.20;0.00;;;34.00;99.90;;;;;;25642978;23;20241;-70
2022/07/20 15:26:46;;;;;;;0.20;0.00;;;33.30;99.90;;;;;;25674838;23;20213;-69
2022/07/20 15:36:51;;;;;;;0.20;0.00;;;34.00;99.90;;;;;;25663973;23;20210;-70
2022/07/20 15:46:55;;;;;;;0.20;0.00;;;34.40;99.90;;;;;;25672937;23;20246;-69
2022/07/20 16:07:21;;;;;;;0.20;0.00;;;33.50;99.90;;;;;;25679773;23;20234;-69
2022/07/20 16:17:27;;;;;;;0.20;0.00;;;33.10;99.90;;;;;;25682240;23;20255;-71
2022/07/20 16:27:31;;;;;;;0.20;0.00;;;30.70;99.90;;;;;;25655584;23;20206;-69
2022/07/20 16:37:36;;;;;;;0.20;0.00;;;30.80;99.90;;;;;;25681577;23;20190;-69
2022/07/20 16:47:40;;;;;;;0.20;0.00;;;30.50;99.90;;;;;;25664325;23;20192;-71
2022/07/20 16:57:45;;;;;;;0.20;0.05;;;30.40;99.90;;;;;;25685502;23;20162;-70
2022/07/20 17:07:49;;;;;;;0.20;0.00;;;30.10;99.90;;;;;;25691427;23;20201;-71
2022/07/20 17:17:55;;;;;;;0.20;0.00;;;30.90;99.90;;;;;;25665796;23;20173;-73
2022/07/20 17:27:59;;;;;;;0.20;0.00;;;31.40;99.90;;;;;;25694623;23;20258;-72
2022/07/20 17:38:04;;;;;;;0.20;0.00;;;32.30;99.90;;;;;;25667571;23;20190;-72
2022/07/20 17:48:09;;;;;;;0.20;0.00;;;31.40;99.90;;;;;;25692314;23;20182;-71
2022/07/20 17:58:14;;;;;;;0.20;0.10;;;31.00;99.90;;;;;;25685144;23;20182;-71
2022/07/20 18:08:18;;;;;;;0.20;0.00;;;30.80;99.90;;;;;;25687355;23;20206;-70
2022/07/20 18:18:24;;;;;;;0.20;0.00;;;30.90;99.90;;;;;;25678651;23;20169;-70
2022/07/20 18:28:28;;;;;;;0.20;0.00;;;30.10;99.90;;;;;;25687818;23;20190;-71
2022/07/20 18:38:33;;;;;;;0.20;0.00;;;29.60;99.90;;;;;;25687592;23;20300;-70
2022/07/20 18:48:40;;;;;;;0.20;0.00;;;29.40;99.90;;;;;;25686812;23;20170;-72
2022/07/20 18:58:46;;;;;;;0.20;0.00;;;28.80;99.90;;;;;;25688045;23;20197;-70
2022/07/20 19:08:50;;;;;;;0.20;0.00;;;28.10;99.90;;;;;;25687718;23;20287;-72
2022/07/20 19:18:56;;;;;;;0.20;0.00;;;27.70;99.90;;;;;;25685907;23;20262;-72
2022/07/20 19:29:00;;;;;;;0.20;0.00;;;27.60;99.90;;;;;;25691256;23;20173;-71
2022/07/20 19:39:05;;;;;;;0.20;0.10;;;27.40;99.90;;;;;;25691229;23;20270;-70
2022/07/20 19:49:09;;;;;;;0.20;0.08;;;27.30;99.90;;;;;;25697816;23;20217;-70
2022/07/20 19:59:15;;;;;;;0.20;0.00;;;27.40;99.90;;;;;;25698917;23;20190;-71
2022/07/20 20:09:21;;;;;;;0.20;0.00;;;27.40;99.90;;;;;;25699616;23;20166;-69
2022/07/20 20:19:27;;;;;;;0.20;0.00;;;27.50;99.90;;;;;;25699656;23;20198;-70
2022/07/20 20:29:30;;;;;;;0.20;0.00;;;27.40;99.90;;;;;;25698653;23;20197;-70
2022/07/20 20:39:36;;;;;;;0.20;0.10;;;27.40;99.90;;;;;;25698095;23;20195;-70
2022/07/20 20:49:41;;;;;;;0.20;0.00;;;27.40;99.90;;;;;;25698356;23;20170;-70
2022/07/20 20:59:47;;;;;;;0.20;0.00;;;27.30;99.90;;;;;;25672395;23;20205;-70
2022/07/20 21:09:50;;;;;;;0.20;0.00;;;26.90;99.90;;;;;;25698327;23;20189;-70
2022/07/20 21:19:56;;;;;;;0.20;0.00;;;26.50;99.90;;;;;;25672454;23;20252;-71
2022/07/20 21:29:59;;;;;;;0.20;0.00;;;26.40;99.90;;;;;;25672138;23;20275;-70
2022/07/20 21:40:06;;;;;;;0.20;0.00;;;26.30;99.90;;;;;;25696266;23;20186;-69
2022/07/20 21:50:10;;;;;;;0.20;0.00;;;26.30;99.90;;;;;;25695466;23;20245;-71
2022/07/20 22:00:16;;;;;;;0.20;0.00;;;26.10;99.90;;;;;;25696423;23;20213;-70
2022/07/20 22:10:20;;;;;;;0.20;0.00;;;26.10;99.90;;;;;;25696446;23;20166;-70
2022/07/20 22:20:25;;;;;;;0.20;0.00;;;26.00;99.90;;;;;;25696675;23;20236;-70
2022/07/20 22:30:29;;;;;;;0.20;0.00;;;26.00;99.90;;;;;;25697448;23;20166;-72
2022/07/20 22:40:34;;;;;;;0.20;0.00;;;25.90;99.90;;;;;;25696681;23;20190;-71
2022/07/20 22:50:39;;;;;;;0.20;0.00;;;25.90;99.90;;;;;;25670255;23;20181;-70
2022/07/20 23:00:45;;;;;;;0.20;0.00;;;25.70;99.90;;;;;;25699505;23;20287;-71
2022/07/20 23:10:48;;;;;;;0.20;0.00;;;25.80;99.90;;;;;;25703424;23;20154;-71
2022/07/20 23:20:53;;;;;;;0.20;0.00;;;25.60;99.90;;;;;;25691638;23;20682;-70
2022/07/20 23:30:58;;;;;;;0.20;0.00;;;25.50;99.90;;;;;;25691563;23;20229;-71
2022/07/20 23:41:03;;;;;;;0.20;0.00;;;25.60;99.90;;;;;;25690973;23;20209;-70
2022/07/20 23:51:07;;;;;;;0.20;0.00;;;25.60;99.90;;;;;;25664792;23;20229;-70
